sensor_id;sensor_type;location;lat;lon;timestamp;P1;durP1;ratioP1;P2;durP2;ratioP2
35919;SDS011;36160;53.370;-6.196;2022-12-19T00:01:49;30.92;;;5.68;;
35919;SDS011;36160;53.370;-6.196;2022-12-19T00:04:15;49.08;;;6.50;;
35919;SDS011;36160;53.370;-6.196;2022-12-19T00:06:43;38.08;;;6.53;;
35919;SDS011;36160;53.370;-6.196;2022-12-19T00:09:10;28.00;;;4.97;;
35919;SDS011;36160;53.370;-6.196;2022-12-19T00:11:37;36.53;;;7.18;;
35919;SDS011;36160;53.370;-6.196;2022-12-19T00:14:03;28.42;;;5.80;;
35919;SDS011;36160;53.370;-6.196;2022-12-19T00:16:29;37.20;;;6.47;;
35919;SDS011;36160;53.370;-6.196;2022-12-19T00:18:56;38.35;;;6.15;;
35919;SDS011;36160;53.370;-6.196;2022-12-19T00:21:24;31.85;;;6.50;;
35919;SDS011;36160;53.370;-6.196;2022-12-19T00:23:52;31.85;;;4.82;;
35919;SDS011;36160;53.370;-6.196;2022-12-19T00:26:18;29.00;;;4.47;;
35919;SDS011;36160;53.370;-6.196;2022-12-19T00:29:05;29.40;;;5.57;;
35919;SDS011;36160;53.370;-6.196;2022-12-19T00:31:32;39.22;;;6.20;;
35919;SDS011;36160;53.370;-6.196;2022-12-19T00:33:59;33.85;;;4.65;;
35919;SDS011;36160;53.370;-6.196;2022-12-19T00:36:29;43.47;;;6.80;;
35919;SDS011;36160;53.370;-6.196;2022-12-19T00:38:56;40.05;;;6.20;;
35919;SDS011;36160;53.370;-6.196;2022-12-19T00:41:24;34.47;;;5.93;;
35919;SDS011;36160;53.370;-6.196;2022-12-19T00:43:52;35.35;;;5.10;;
35919;SDS011;36160;53.370;-6.196;2022-12-19T00:46:22;32.17;;;5.68;;
35919;SDS011;36160;53.370;-6.196;2022-12-19T00:48:49;40.80;;;6.57;;
35919;SDS011;36160;53.370;-6.196;2022-12-19T00:51:15;39.53;;;5.85;;
35919;SDS011;36160;53.370;-6.196;2022-12-19T00:53:43;38.28;;;4.80;;
35919;SDS011;36160;53.370;-6.196;2022-12-19T00:56:11;36.63;;;5.03;;
35919;SDS011;36160;53.370;-6.196;2022-12-19T00:58:38;27.52;;;4.70;;
35919;SDS011;36160;53.370;-6.196;2022-12-19T01:01:05;24.23;;;4.32;;
35919;SDS011;36160;53.370;-6.196;2022-12-19T01:03:36;35.00;;;4.68;;
35919;SDS011;36160;53.370;-6.196;2022-12-19T01:06:02;37.10;;;5.20;;
35919;SDS011;36160;53.370;-6.196;2022-12-19T01:08:28;34.15;;;4.38;;
35919;SDS011;36160;53.370;-6.196;2022-12-19T01:10:54;25.00;;;3.55;;
35919;SDS011;36160;53.370;-6.196;2022-12-19T01:13:20;27.55;;;4.10;;
35919;SDS011;36160;53.370;-6.196;2022-12-19T01:15:46;31.95;;;4.50;;
35919;SDS011;36160;53.370;-6.196;2022-12-19T01:18:12;24.23;;;3.00;;
35919;SDS011;36160;53.370;-6.196;2022-12-19T01:20:39;24.83;;;5.45;;
35919;SDS011;36160;53.370;-6.196;2022-12-19T01:23:06;21.77;;;3.88;;
35919;SDS011;36160;53.370;-6.196;2022-12-19T01:25:33;16.83;;;3.40;;
35919;SDS011;36160;53.370;-6.196;2022-12-19T01:28:00;25.35;;;4.10;;
35919;SDS011;36160;53.370;-6.196;2022-12-19T01:30:26;22.30;;;4.05;;
35919;SDS011;36160;53.370;-6.196;2022-12-19T01:32:52;22.92;;;4.18;;
35919;SDS011;36160;53.370;-6.196;2022-12-19T01:35:17;21.67;;;3.47;;
35919;SDS011;36160;53.370;-6.196;2022-12-19T01:37:43;36.25;;;4.18;;
35919;SDS011;36160;53.370;-6.196;2022-12-19T01:40:10;33.80;;;4.18;;
35919;SDS011;36160;53.370;-6.196;2022-12-19T01:42:36;32.95;;;4.72;;
35919;SDS011;36160;53.370;-6.196;2022-12-19T01:45:03;24.48;;;3.50;;
35919;SDS011;36160;53.370;-6.196;2022-12-19T01:47:33;27.23;;;5.28;;
35919;SDS011;36160;53.370;-6.196;2022-12-19T01:50:07;22.58;;;4.60;;
35919;SDS011;36160;53.370;-6.196;2022-12-19T01:52:37;23.20;;;3.45;;
35919;SDS011;36160;53.370;-6.196;2022-12-19T01:55:03;24.25;;;4.00;;
35919;SDS011;36160;53.370;-6.196;2022-12-19T01:57:29;24.85;;;3.80;;
35919;SDS011;36160;53.370;-6.196;2022-12-19T01:59:56;27.30;;;3.55;;
35919;SDS011;36160;53.370;-6.196;2022-12-19T02:02:31;24.05;;;2.92;;
35919;SDS011;36160;53.370;-6.196;2022-12-19T02:04:59;19.92;;;3.45;;
35919;SDS011;36160;53.370;-6.196;2022-12-19T02:07:27;22.48;;;3.22;;
35919;SDS011;36160;53.370;-6.196;2022-12-19T02:09:54;29.63;;;4.63;;
35919;SDS011;36160;53.370;-6.196;2022-12-19T02:12:21;38.92;;;5.78;;
35919;SDS011;36160;53.370;-6.196;2022-12-19T02:14:48;43.65;;;5.95;;
35919;SDS011;36160;53.370;-6.196;2022-12-19T02:17:17;23.02;;;5.25;;
35919;SDS011;36160;53.370;-6.196;2022-12-19T02:28:58;50.67;;;7.15;;
35919;SDS011;36160;53.370;-6.196;2022-12-19T02:31:44;66.32;;;7.97;;
35919;SDS011;36160;53.370;-6.196;2022-12-19T02:34:25;53.45;;;7.22;;
35919;SDS011;36160;53.370;-6.196;2022-12-19T02:39:31;48.28;;;7.50;;
35919;SDS011;36160;53.370;-6.196;2022-12-19T02:42:05;31.13;;;4.95;;
35919;SDS011;36160;53.370;-6.196;2022-12-19T02:44:36;31.25;;;5.35;;
35919;SDS011;36160;53.370;-6.196;2022-12-19T02:47:06;37.50;;;7.88;;
35919;SDS011;36160;53.370;-6.196;2022-12-19T02:49:34;36.72;;;5.18;;
35919;SDS011;36160;53.370;-6.196;2022-12-19T02:52:10;35.20;;;5.18;;
35919;SDS011;36160;53.370;-6.196;2022-12-19T02:54:42;33.70;;;4.75;;
35919;SDS011;36160;53.370;-6.196;2022-12-19T02:57:15;37.70;;;4.72;;
35919;SDS011;36160;53.370;-6.196;2022-12-19T03:02:46;38.92;;;6.38;;
35919;SDS011;36160;53.370;-6.196;2022-12-19T03:05:25;39.15;;;6.55;;
35919;SDS011;36160;53.370;-6.196;2022-12-19T03:08:27;35.65;;;6.15;;
35919;SDS011;36160;53.370;-6.196;2022-12-19T03:11:04;25.63;;;3.97;;
35919;SDS011;36160;53.370;-6.196;2022-12-19T03:16:07;28.80;;;5.28;;
35919;SDS011;36160;53.370;-6.196;2022-12-19T03:18:35;36.90;;;6.53;;
35919;SDS011;36160;53.370;-6.196;2022-12-19T03:23:35;30.48;;;6.30;;
35919;SDS011;36160;53.370;-6.196;2022-12-19T03:26:06;39.08;;;7.18;;
35919;SDS011;36160;53.370;-6.196;2022-12-19T03:31:18;55.22;;;8.55;;
35919;SDS011;36160;53.370;-6.196;2022-12-19T03:33:46;49.42;;;6.50;;
35919;SDS011;36160;53.370;-6.196;2022-12-19T03:36:21;82.47;;;9.05;;
35919;SDS011;36160;53.370;-6.196;2022-12-19T03:38:51;65.45;;;8.23;;
35919;SDS011;36160;53.370;-6.196;2022-12-19T03:41:17;60.88;;;9.05;;
35919;SDS011;36160;53.370;-6.196;2022-12-19T03:44:05;75.35;;;11.77;;
35919;SDS011;36160;53.370;-6.196;2022-12-19T03:46:33;69.00;;;11.13;;
35919;SDS011;36160;53.370;-6.196;2022-12-19T03:49:03;62.25;;;9.35;;
35919;SDS011;36160;53.370;-6.196;2022-12-19T03:59:43;52.65;;;6.55;;
35919;SDS011;36160;53.370;-6.196;2022-12-19T04:02:15;43.30;;;8.50;;
35919;SDS011;36160;53.370;-6.196;2022-12-19T04:04:49;71.55;;;9.27;;
35919;SDS011;36160;53.370;-6.196;2022-12-19T04:07:21;61.78;;;7.47;;
35919;SDS011;36160;53.370;-6.196;2022-12-19T04:09:48;47.28;;;6.57;;
35919;SDS011;36160;53.370;-6.196;2022-12-19T04:12:19;37.45;;;5.60;;
35919;SDS011;36160;53.370;-6.196;2022-12-19T04:14:48;33.58;;;5.93;;
35919;SDS011;36160;53.370;-6.196;2022-12-19T04:20:04;28.42;;;4.18;;
35919;SDS011;36160;53.370;-6.196;2022-12-19T04:22:49;31.65;;;4.65;;
35919;SDS011;36160;53.370;-6.196;2022-12-19T04:25:30;21.10;;;3.28;;
35919;SDS011;36160;53.370;-6.196;2022-12-19T04:28:07;32.42;;;4.22;;
35919;SDS011;36160;53.370;-6.196;2022-12-19T04:30:38;29.73;;;3.83;;
35919;SDS011;36160;53.370;-6.196;2022-12-19T04:33:05;29.17;;;5.28;;
35919;SDS011;36160;53.370;-6.196;2022-12-19T04:35:31;33.92;;;5.75;;
35919;SDS011;36160;53.370;-6.196;2022-12-19T04:37:58;35.90;;;5.25;;
35919;SDS011;36160;53.370;-6.196;2022-12-19T04:40:23;25.52;;;5.03;;
35919;SDS011;36160;53.370;-6.196;2022-12-19T04:42:49;40.75;;;5.75;;
35919;SDS011;36160;53.370;-6.196;2022-12-19T04:45:15;42.17;;;6.20;;
35919;SDS011;36160;53.370;-6.196;2022-12-19T04:47:40;49.85;;;7.00;;
35919;SDS011;36160;53.370;-6.196;2022-12-19T04:50:06;37.72;;;6.22;;
35919;SDS011;36160;53.370;-6.196;2022-12-19T04:52:33;46.50;;;6.25;;
35919;SDS011;36160;53.370;-6.196;2022-12-19T04:54:58;37.58;;;5.85;;
35919;SDS011;36160;53.370;-6.196;2022-12-19T04:57:24;33.30;;;5.90;;
35919;SDS011;36160;53.370;-6.196;2022-12-19T04:59:53;33.47;;;6.15;;
35919;SDS011;36160;53.370;-6.196;2022-12-19T05:02:18;42.70;;;5.90;;
35919;SDS011;36160;53.370;-6.196;2022-12-19T05:04:44;42.42;;;6.95;;
35919;SDS011;36160;53.370;-6.196;2022-12-19T05:07:10;58.05;;;10.38;;
35919;SDS011;36160;53.370;-6.196;2022-12-19T05:09:37;64.88;;;6.53;;
35919;SDS011;36160;53.370;-6.196;2022-12-19T05:12:03;65.45;;;10.30;;
35919;SDS011;36160;53.370;-6.196;2022-12-19T05:14:29;63.58;;;10.27;;
35919;SDS011;36160;53.370;-6.196;2022-12-19T05:16:54;39.20;;;7.15;;
35919;SDS011;36160;53.370;-6.196;2022-12-19T05:19:20;46.05;;;7.43;;
35919;SDS011;36160;53.370;-6.196;2022-12-19T05:21:46;55.53;;;9.02;;
35919;SDS011;36160;53.370;-6.196;2022-12-19T05:24:11;54.60;;;8.13;;
35919;SDS011;36160;53.370;-6.196;2022-12-19T05:26:37;51.97;;;8.45;;
35919;SDS011;36160;53.370;-6.196;2022-12-19T05:29:03;38.00;;;6.00;;
35919;SDS011;36160;53.370;-6.196;2022-12-19T05:31:29;49.35;;;5.55;;
35919;SDS011;36160;53.370;-6.196;2022-12-19T05:33:54;44.20;;;5.68;;
35919;SDS011;36160;53.370;-6.196;2022-12-19T05:36:20;51.55;;;6.25;;
35919;SDS011;36160;53.370;-6.196;2022-12-19T05:38:46;40.17;;;6.25;;
35919;SDS011;36160;53.370;-6.196;2022-12-19T05:41:13;41.95;;;5.57;;
35919;SDS011;36160;53.370;-6.196;2022-12-19T05:43:40;43.42;;;6.72;;
35919;SDS011;36160;53.370;-6.196;2022-12-19T05:46:10;33.90;;;5.82;;
35919;SDS011;36160;53.370;-6.196;2022-12-19T05:48:36;39.45;;;6.38;;
35919;SDS011;36160;53.370;-6.196;2022-12-19T05:51:02;35.83;;;6.07;;
35919;SDS011;36160;53.370;-6.196;2022-12-19T05:53:28;44.08;;;5.75;;
35919;SDS011;36160;53.370;-6.196;2022-12-19T05:58:33;45.83;;;7.22;;
35919;SDS011;36160;53.370;-6.196;2022-12-19T06:01:00;39.85;;;6.68;;
35919;SDS011;36160;53.370;-6.196;2022-12-19T06:03:27;50.15;;;7.65;;
35919;SDS011;36160;53.370;-6.196;2022-12-19T06:05:52;50.22;;;7.65;;
35919;SDS011;36160;53.370;-6.196;2022-12-19T06:08:19;35.75;;;6.93;;
35919;SDS011;36160;53.370;-6.196;2022-12-19T06:10:45;55.67;;;8.90;;
35919;SDS011;36160;53.370;-6.196;2022-12-19T06:13:10;50.78;;;7.55;;
35919;SDS011;36160;53.370;-6.196;2022-12-19T06:15:36;57.78;;;8.75;;
35919;SDS011;36160;53.370;-6.196;2022-12-19T06:18:02;56.38;;;7.97;;
35919;SDS011;36160;53.370;-6.196;2022-12-19T06:20:27;54.35;;;10.32;;
35919;SDS011;36160;53.370;-6.196;2022-12-19T06:22:53;56.97;;;7.63;;
35919;SDS011;36160;53.370;-6.196;2022-12-19T06:25:19;46.13;;;7.65;;
35919;SDS011;36160;53.370;-6.196;2022-12-19T06:27:45;47.25;;;7.13;;
35919;SDS011;36160;53.370;-6.196;2022-12-19T06:30:10;30.52;;;5.85;;
35919;SDS011;36160;53.370;-6.196;2022-12-19T06:32:37;42.75;;;7.82;;
35919;SDS011;36160;53.370;-6.196;2022-12-19T06:35:02;35.55;;;5.95;;
35919;SDS011;36160;53.370;-6.196;2022-12-19T06:37:28;37.95;;;4.45;;
35919;SDS011;36160;53.370;-6.196;2022-12-19T06:39:54;48.08;;;6.75;;
35919;SDS011;36160;53.370;-6.196;2022-12-19T06:42:20;35.10;;;5.50;;
35919;SDS011;36160;53.370;-6.196;2022-12-19T06:44:49;37.30;;;5.47;;
35919;SDS011;36160;53.370;-6.196;2022-12-19T06:47:15;51.35;;;6.30;;
35919;SDS011;36160;53.370;-6.196;2022-12-19T06:49:41;31.50;;;6.28;;
35919;SDS011;36160;53.370;-6.196;2022-12-19T06:52:07;49.03;;;7.97;;
35919;SDS011;36160;53.370;-6.196;2022-12-19T06:54:32;47.08;;;9.32;;
35919;SDS011;36160;53.370;-6.196;2022-12-19T06:56:58;50.83;;;7.38;;
35919;SDS011;36160;53.370;-6.196;2022-12-19T06:59:24;45.95;;;5.60;;
35919;SDS011;36160;53.370;-6.196;2022-12-19T07:04:31;38.55;;;6.82;;
35919;SDS011;36160;53.370;-6.196;2022-12-19T07:07:01;42.17;;;5.57;;
35919;SDS011;36160;53.370;-6.196;2022-12-19T07:09:27;32.40;;;5.63;;
35919;SDS011;36160;53.370;-6.196;2022-12-19T07:11:55;27.38;;;4.05;;
35919;SDS011;36160;53.370;-6.196;2022-12-19T07:14:21;26.90;;;6.03;;
35919;SDS011;36160;53.370;-6.196;2022-12-19T07:16:47;28.80;;;5.90;;
35919;SDS011;36160;53.370;-6.196;2022-12-19T07:19:15;41.83;;;6.25;;
35919;SDS011;36160;53.370;-6.196;2022-12-19T07:21:41;26.90;;;5.97;;
35919;SDS011;36160;53.370;-6.196;2022-12-19T07:24:07;19.77;;;3.70;;
35919;SDS011;36160;53.370;-6.196;2022-12-19T07:26:33;23.25;;;3.55;;
35919;SDS011;36160;53.370;-6.196;2022-12-19T07:28:59;32.60;;;5.93;;
35919;SDS011;36160;53.370;-6.196;2022-12-19T07:31:25;19.38;;;4.50;;
35919;SDS011;36160;53.370;-6.196;2022-12-19T07:33:51;22.13;;;3.17;;
35919;SDS011;36160;53.370;-6.196;2022-12-19T07:36:17;14.32;;;2.90;;
35919;SDS011;36160;53.370;-6.196;2022-12-19T07:38:42;18.38;;;3.33;;
35919;SDS011;36160;53.370;-6.196;2022-12-19T07:41:08;20.42;;;3.15;;
35919;SDS011;36160;53.370;-6.196;2022-12-19T07:43:34;14.00;;;3.08;;
35919;SDS011;36160;53.370;-6.196;2022-12-19T07:45:59;17.88;;;3.00;;
35919;SDS011;36160;53.370;-6.196;2022-12-19T07:48:25;12.20;;;3.10;;
35919;SDS011;36160;53.370;-6.196;2022-12-19T07:50:52;9.15;;;2.47;;
35919;SDS011;36160;53.370;-6.196;2022-12-19T07:53:18;16.17;;;2.80;;
35919;SDS011;36160;53.370;-6.196;2022-12-19T07:55:44;26.95;;;3.90;;
35919;SDS011;36160;53.370;-6.196;2022-12-19T07:58:09;31.85;;;5.15;;
35919;SDS011;36160;53.370;-6.196;2022-12-19T08:00:35;39.97;;;6.90;;
35919;SDS011;36160;53.370;-6.196;2022-12-19T08:03:01;40.35;;;6.55;;
35919;SDS011;36160;53.370;-6.196;2022-12-19T08:05:28;35.88;;;6.53;;
35919;SDS011;36160;53.370;-6.196;2022-12-19T08:07:54;35.05;;;6.68;;
35919;SDS011;36160;53.370;-6.196;2022-12-19T08:10:20;34.25;;;4.88;;
35919;SDS011;36160;53.370;-6.196;2022-12-19T08:12:47;26.83;;;6.55;;
35919;SDS011;36160;53.370;-6.196;2022-12-19T08:15:12;29.35;;;5.63;;
35919;SDS011;36160;53.370;-6.196;2022-12-19T08:17:38;26.35;;;5.25;;
35919;SDS011;36160;53.370;-6.196;2022-12-19T08:20:08;17.88;;;3.72;;
35919;SDS011;36160;53.370;-6.196;2022-12-19T08:22:35;24.67;;;4.10;;
35919;SDS011;36160;53.370;-6.196;2022-12-19T08:25:01;35.25;;;5.28;;
35919;SDS011;36160;53.370;-6.196;2022-12-19T08:27:27;33.47;;;4.95;;
35919;SDS011;36160;53.370;-6.196;2022-12-19T08:29:53;36.90;;;5.63;;
35919;SDS011;36160;53.370;-6.196;2022-12-19T08:32:19;34.38;;;5.82;;
35919;SDS011;36160;53.370;-6.196;2022-12-19T08:34:44;43.50;;;7.78;;
35919;SDS011;36160;53.370;-6.196;2022-12-19T08:37:11;48.30;;;8.50;;
35919;SDS011;36160;53.370;-6.196;2022-12-19T08:39:37;46.78;;;8.02;;
35919;SDS011;36160;53.370;-6.196;2022-12-19T08:42:03;52.05;;;7.88;;
35919;SDS011;36160;53.370;-6.196;2022-12-19T08:44:28;53.60;;;9.60;;
35919;SDS011;36160;53.370;-6.196;2022-12-19T08:46:54;41.33;;;7.13;;
35919;SDS011;36160;53.370;-6.196;2022-12-19T08:49:20;44.83;;;7.13;;
35919;SDS011;36160;53.370;-6.196;2022-12-19T08:51:45;41.15;;;6.65;;
35919;SDS011;36160;53.370;-6.196;2022-12-19T08:54:11;33.17;;;5.82;;
35919;SDS011;36160;53.370;-6.196;2022-12-19T08:56:37;28.90;;;3.70;;
35919;SDS011;36160;53.370;-6.196;2022-12-19T08:59:03;30.65;;;4.80;;
35919;SDS011;36160;53.370;-6.196;2022-12-19T09:01:30;18.77;;;3.75;;
35919;SDS011;36160;53.370;-6.196;2022-12-19T09:03:58;26.13;;;6.22;;
35919;SDS011;36160;53.370;-6.196;2022-12-19T09:06:24;25.80;;;3.70;;
35919;SDS011;36160;53.370;-6.196;2022-12-19T09:08:50;27.73;;;5.43;;
35919;SDS011;36160;53.370;-6.196;2022-12-19T09:11:16;42.75;;;6.10;;
35919;SDS011;36160;53.370;-6.196;2022-12-19T09:13:44;37.38;;;6.80;;
35919;SDS011;36160;53.370;-6.196;2022-12-19T09:16:13;29.67;;;5.72;;
35919;SDS011;36160;53.370;-6.196;2022-12-19T09:21:09;63.08;;;10.77;;
35919;SDS011;36160;53.370;-6.196;2022-12-19T09:23:35;64.85;;;10.00;;
35919;SDS011;36160;53.370;-6.196;2022-12-19T09:26:05;48.00;;;7.25;;
35919;SDS011;36160;53.370;-6.196;2022-12-19T09:28:33;57.97;;;11.50;;
35919;SDS011;36160;53.370;-6.196;2022-12-19T09:31:00;61.47;;;11.10;;
35919;SDS011;36160;53.370;-6.196;2022-12-19T09:33:28;71.35;;;10.57;;
35919;SDS011;36160;53.370;-6.196;2022-12-19T09:35:55;68.43;;;13.13;;
35919;SDS011;36160;53.370;-6.196;2022-12-19T09:38:21;78.82;;;9.85;;
35919;SDS011;36160;53.370;-6.196;2022-12-19T09:46:48;92.50;;;13.75;;
35919;SDS011;36160;53.370;-6.196;2022-12-19T09:49:21;84.70;;;11.80;;
35919;SDS011;36160;53.370;-6.196;2022-12-19T09:52:05;92.45;;;13.25;;
35919;SDS011;36160;53.370;-6.196;2022-12-19T09:54:43;105.10;;;13.93;;
35919;SDS011;36160;53.370;-6.196;2022-12-19T10:00:12;85.40;;;12.38;;
35919;SDS011;36160;53.370;-6.196;2022-12-19T10:02:48;79.15;;;11.40;;
35919;SDS011;36160;53.370;-6.196;2022-12-19T10:05:23;74.97;;;12.27;;
35919;SDS011;36160;53.370;-6.196;2022-12-19T10:16:17;49.28;;;7.30;;
35919;SDS011;36160;53.370;-6.196;2022-12-19T10:19:02;49.42;;;9.05;;
35919;SDS011;36160;53.370;-6.196;2022-12-19T10:26:35;69.22;;;10.13;;
35919;SDS011;36160;53.370;-6.196;2022-12-19T10:37:07;62.97;;;9.52;;
35919;SDS011;36160;53.370;-6.196;2022-12-19T10:42:49;55.10;;;9.25;;
35919;SDS011;36160;53.370;-6.196;2022-12-19T10:45:22;46.88;;;9.98;;
35919;SDS011;36160;53.370;-6.196;2022-12-19T10:47:48;45.25;;;7.03;;
35919;SDS011;36160;53.370;-6.196;2022-12-19T10:50:22;43.75;;;6.40;;
35919;SDS011;36160;53.370;-6.196;2022-12-19T10:53:05;53.42;;;6.40;;
35919;SDS011;36160;53.370;-6.196;2022-12-19T10:55:37;38.17;;;5.05;;
35919;SDS011;36160;53.370;-6.196;2022-12-19T11:01:25;32.92;;;4.75;;
35919;SDS011;36160;53.370;-6.196;2022-12-19T11:03:36;24.98;;;5.07;;
35919;SDS011;36160;53.370;-6.196;2022-12-19T11:06:03;22.58;;;4.65;;
35919;SDS011;36160;53.370;-6.196;2022-12-19T11:08:33;27.23;;;4.43;;
35919;SDS011;36160;53.370;-6.196;2022-12-19T11:16:08;16.70;;;3.78;;
35919;SDS011;36160;53.370;-6.196;2022-12-19T11:18:35;17.90;;;3.92;;
35919;SDS011;36160;53.370;-6.196;2022-12-19T11:21:03;16.95;;;2.95;;
35919;SDS011;36160;53.370;-6.196;2022-12-19T11:23:31;12.70;;;2.83;;
35919;SDS011;36160;53.370;-6.196;2022-12-19T11:26:02;18.42;;;3.53;;
35919;SDS011;36160;53.370;-6.196;2022-12-19T11:28:35;21.13;;;2.80;;
35919;SDS011;36160;53.370;-6.196;2022-12-19T11:31:07;21.75;;;4.40;;
35919;SDS011;36160;53.370;-6.196;2022-12-19T11:33:46;16.27;;;3.08;;
35919;SDS011;36160;53.370;-6.196;2022-12-19T11:39:17;22.27;;;3.00;;
35919;SDS011;36160;53.370;-6.196;2022-12-19T11:42:22;21.17;;;3.35;;
35919;SDS011;36160;53.370;-6.196;2022-12-19T11:45:10;14.93;;;2.80;;
35919;SDS011;36160;53.370;-6.196;2022-12-19T11:47:39;18.60;;;3.90;;
35919;SDS011;36160;53.370;-6.196;2022-12-19T11:50:13;40.63;;;5.32;;
35919;SDS011;36160;53.370;-6.196;2022-12-19T11:52:46;30.33;;;4.40;;
35919;SDS011;36160;53.370;-6.196;2022-12-19T11:55:31;28.38;;;4.75;;
35919;SDS011;36160;53.370;-6.196;2022-12-19T11:58:00;38.13;;;4.95;;
35919;SDS011;36160;53.370;-6.196;2022-12-19T12:00:26;29.63;;;6.38;;
35919;SDS011;36160;53.370;-6.196;2022-12-19T12:05:38;36.03;;;3.90;;
35919;SDS011;36160;53.370;-6.196;2022-12-19T12:10:35;36.38;;;4.28;;
35919;SDS011;36160;53.370;-6.196;2022-12-19T12:13:16;7.50;;;3.03;;
35919;SDS011;36160;53.370;-6.196;2022-12-19T12:16:02;3.45;;;1.17;;
35919;SDS011;36160;53.370;-6.196;2022-12-19T12:21:21;4.05;;;0.95;;
35919;SDS011;36160;53.370;-6.196;2022-12-19T12:35:34;5.90;;;1.77;;
35919;SDS011;36160;53.370;-6.196;2022-12-19T12:41:14;3.13;;;1.02;;
35919;SDS011;36160;53.370;-6.196;2022-12-19T12:44:07;2.95;;;1.60;;
35919;SDS011;36160;53.370;-6.196;2022-12-19T12:46:48;2.25;;;1.20;;
35919;SDS011;36160;53.370;-6.196;2022-12-19T12:49:32;4.82;;;1.20;;
35919;SDS011;36160;53.370;-6.196;2022-12-19T12:52:05;3.08;;;1.48;;
35919;SDS011;36160;53.370;-6.196;2022-12-19T12:54:36;6.68;;;1.80;;
35919;SDS011;36160;53.370;-6.196;2022-12-19T12:57:04;5.38;;;1.30;;
35919;SDS011;36160;53.370;-6.196;2022-12-19T12:59:30;5.97;;;1.27;;
35919;SDS011;36160;53.370;-6.196;2022-12-19T13:04:58;8.38;;;1.65;;
35919;SDS011;36160;53.370;-6.196;2022-12-19T13:07:41;9.30;;;1.77;;
35919;SDS011;36160;53.370;-6.196;2022-12-19T13:10:20;5.45;;;1.35;;
35919;SDS011;36160;53.370;-6.196;2022-12-19T13:12:53;6.50;;;1.45;;
35919;SDS011;36160;53.370;-6.196;2022-12-19T13:27:57;9.10;;;3.88;;
35919;SDS011;36160;53.370;-6.196;2022-12-19T13:41:54;4.13;;;1.23;;
35919;SDS011;36160;53.370;-6.196;2022-12-19T13:44:44;3.88;;;1.35;;
35919;SDS011;36160;53.370;-6.196;2022-12-19T13:47:13;6.90;;;1.20;;
35919;SDS011;36160;53.370;-6.196;2022-12-19T13:49:39;4.65;;;1.00;;
35919;SDS011;36160;53.370;-6.196;2022-12-19T13:52:08;2.60;;;0.93;;
35919;SDS011;36160;53.370;-6.196;2022-12-19T13:54:44;4.00;;;1.52;;
35919;SDS011;36160;53.370;-6.196;2022-12-19T13:57:24;1.52;;;0.93;;
35919;SDS011;36160;53.370;-6.196;2022-12-19T13:59:52;4.80;;;3.20;;
35919;SDS011;36160;53.370;-6.196;2022-12-19T14:02:25;6.00;;;3.67;;
35919;SDS011;36160;53.370;-6.196;2022-12-19T14:04:59;11.20;;;5.43;;
35919;SDS011;36160;53.370;-6.196;2022-12-19T14:07:36;3.92;;;1.80;;
35919;SDS011;36160;53.370;-6.196;2022-12-19T14:10:05;7.65;;;4.03;;
35919;SDS011;36160;53.370;-6.196;2022-12-19T14:12:39;5.47;;;1.85;;
35919;SDS011;36160;53.370;-6.196;2022-12-19T14:15:34;6.43;;;1.42;;
35919;SDS011;36160;53.370;-6.196;2022-12-19T14:18:24;2.22;;;1.40;;
35919;SDS011;36160;53.370;-6.196;2022-12-19T14:20:50;5.47;;;1.70;;
35919;SDS011;36160;53.370;-6.196;2022-12-19T14:23:31;4.43;;;1.60;;
35919;SDS011;36160;53.370;-6.196;2022-12-19T14:25:57;3.83;;;1.55;;
35919;SDS011;36160;53.370;-6.196;2022-12-19T14:28:24;2.25;;;1.05;;
35919;SDS011;36160;53.370;-6.196;2022-12-19T14:31:04;2.38;;;1.10;;
35919;SDS011;36160;53.370;-6.196;2022-12-19T14:33:36;2.17;;;1.20;;
35919;SDS011;36160;53.370;-6.196;2022-12-19T14:36:05;2.05;;;1.13;;
35919;SDS011;36160;53.370;-6.196;2022-12-19T14:38:32;1.92;;;1.20;;
35919;SDS011;36160;53.370;-6.196;2022-12-19T14:40:59;1.92;;;1.00;;
35919;SDS011;36160;53.370;-6.196;2022-12-19T14:43:27;2.35;;;1.42;;
35919;SDS011;36160;53.370;-6.196;2022-12-19T14:49:01;3.90;;;1.60;;
35919;SDS011;36160;53.370;-6.196;2022-12-19T14:54:05;3.42;;;2.10;;
35919;SDS011;36160;53.370;-6.196;2022-12-19T15:04:31;5.40;;;1.67;;
35919;SDS011;36160;53.370;-6.196;2022-12-19T15:07:07;3.33;;;1.10;;
35919;SDS011;36160;53.370;-6.196;2022-12-19T15:12:22;6.40;;;2.03;;
35919;SDS011;36160;53.370;-6.196;2022-12-19T15:15:17;5.20;;;2.97;;
35919;SDS011;36160;53.370;-6.196;2022-12-19T15:17:45;3.72;;;2.63;;
35919;SDS011;36160;53.370;-6.196;2022-12-19T15:20:13;3.60;;;2.13;;
35919;SDS011;36160;53.370;-6.196;2022-12-19T15:22:39;3.85;;;1.85;;
35919;SDS011;36160;53.370;-6.196;2022-12-19T15:25:04;6.00;;;1.60;;
35919;SDS011;36160;53.370;-6.196;2022-12-19T15:27:30;4.72;;;1.60;;
35919;SDS011;36160;53.370;-6.196;2022-12-19T15:29:56;9.75;;;2.42;;
35919;SDS011;36160;53.370;-6.196;2022-12-19T15:32:22;9.05;;;2.08;;
35919;SDS011;36160;53.370;-6.196;2022-12-19T15:34:48;3.65;;;2.03;;
35919;SDS011;36160;53.370;-6.196;2022-12-19T15:37:14;3.42;;;1.55;;
35919;SDS011;36160;53.370;-6.196;2022-12-19T15:39:41;8.32;;;2.55;;
35919;SDS011;36160;53.370;-6.196;2022-12-19T15:42:19;7.65;;;4.38;;
35919;SDS011;36160;53.370;-6.196;2022-12-19T15:44:48;6.53;;;2.35;;
35919;SDS011;36160;53.370;-6.196;2022-12-19T15:47:20;8.63;;;3.92;;
35919;SDS011;36160;53.370;-6.196;2022-12-19T15:49:54;5.05;;;2.08;;
35919;SDS011;36160;53.370;-6.196;2022-12-19T15:52:19;6.88;;;3.80;;
35919;SDS011;36160;53.370;-6.196;2022-12-19T15:54:46;6.38;;;2.70;;
35919;SDS011;36160;53.370;-6.196;2022-12-19T15:57:34;7.65;;;3.08;;
35919;SDS011;36160;53.370;-6.196;2022-12-19T16:00:01;6.20;;;2.97;;
35919;SDS011;36160;53.370;-6.196;2022-12-19T16:02:31;5.95;;;2.50;;
35919;SDS011;36160;53.370;-6.196;2022-12-19T16:04:57;9.20;;;2.97;;
35919;SDS011;36160;53.370;-6.196;2022-12-19T16:07:24;6.97;;;1.65;;
35919;SDS011;36160;53.370;-6.196;2022-12-19T16:09:50;8.75;;;2.38;;
35919;SDS011;36160;53.370;-6.196;2022-12-19T16:12:20;3.60;;;2.03;;
35919;SDS011;36160;53.370;-6.196;2022-12-19T16:14:55;6.72;;;1.95;;
35919;SDS011;36160;53.370;-6.196;2022-12-19T16:17:22;4.55;;;1.83;;
35919;SDS011;36160;53.370;-6.196;2022-12-19T16:19:49;3.95;;;2.20;;
35919;SDS011;36160;53.370;-6.196;2022-12-19T16:22:20;8.13;;;2.33;;
35919;SDS011;36160;53.370;-6.196;2022-12-19T16:24:48;2.88;;;1.55;;
35919;SDS011;36160;53.370;-6.196;2022-12-19T16:27:20;6.40;;;2.40;;
35919;SDS011;36160;53.370;-6.196;2022-12-19T16:29:53;2.30;;;1.05;;
35919;SDS011;36160;53.370;-6.196;2022-12-19T16:32:20;5.43;;;1.70;;
35919;SDS011;36160;53.370;-6.196;2022-12-19T16:34:48;3.80;;;1.35;;
35919;SDS011;36160;53.370;-6.196;2022-12-19T16:37:14;3.10;;;1.40;;
35919;SDS011;36160;53.370;-6.196;2022-12-19T16:39:40;6.90;;;1.80;;
35919;SDS011;36160;53.370;-6.196;2022-12-19T16:42:15;5.85;;;2.65;;
35919;SDS011;36160;53.370;-6.196;2022-12-19T16:44:42;5.63;;;2.47;;
35919;SDS011;36160;53.370;-6.196;2022-12-19T16:47:11;6.25;;;2.33;;
35919;SDS011;36160;53.370;-6.196;2022-12-19T16:49:39;5.53;;;1.98;;
35919;SDS011;36160;53.370;-6.196;2022-12-19T16:52:05;7.63;;;2.55;;
35919;SDS011;36160;53.370;-6.196;2022-12-19T16:54:31;6.13;;;2.03;;
35919;SDS011;36160;53.370;-6.196;2022-12-19T16:56:56;7.70;;;2.47;;
35919;SDS011;36160;53.370;-6.196;2022-12-19T16:59:30;9.27;;;1.80;;
35919;SDS011;36160;53.370;-6.196;2022-12-19T17:04:53;5.03;;;2.03;;
35919;SDS011;36160;53.370;-6.196;2022-12-19T17:07:19;6.88;;;2.60;;
35919;SDS011;36160;53.370;-6.196;2022-12-19T17:09:45;6.50;;;2.28;;
35919;SDS011;36160;53.370;-6.196;2022-12-19T17:12:13;7.82;;;2.00;;